Time;durP1;ratioP1;P1;durP2;ratioP2;P2;SDS_P1;SDS_P2;PMS_P1;PMS_P2;Temp;Humidity;BMP_temperature;BMP_pressure;BME280_temperature;BME280_humidity;BME280_pressure;Samples;Min_cycle;Max_cycle;Signal;HPM_P1;HPM_P2
2022/11/11 00:01:55;;;;;;;6.45;4.32;;;;;;;;;;5069839;28;20103;-40
2022/11/11 00:04:21;;;;;;;8.45;4.45;;;;;;;;;;5069075;28;20094;-40
2022/11/11 00:06:47;;;;;;;4.65;3.60;;;;;;;;;;5069002;28;20033;-40
2022/11/11 00:09:13;;;;;;;6.50;4.30;;;;;;;;;;5069258;28;20091;-40
2022/11/11 00:11:39;;;;;;;6.18;4.30;;;;;;;;;;5069173;28;20021;-40
2022/11/11 00:14:05;;;;;;;8.27;4.40;;;;;;;;;;5089302;28;20103;-40
2022/11/11 00:25:04;;;;;;;7.20;4.63;;;;;;;;;;5089221;28;20028;-40
2022/11/11 00:27:30;;;;;;;;;;;;;;;;;;5069398;28;20059;-40
2022/11/11 00:29:56;;;;;;;10.27;5.63;;;;;;;;;;5069609;28;19938;-40
2022/11/11 00:32:22;;;;;;;9.40;5.25;;;;;;;;;;5068965;28;20107;-40
2022/11/11 00:37:36;;;;;;;7.32;4.85;;;;;;;;;;5068566;28;20102;-40
2022/11/11 00:40:03;;;;;;;8.45;5.03;;;;;;;;;;5088229;28;20020;-40
2022/11/11 00:42:29;;;;;;;8.40;5.10;;;;;;;;;;5090071;28;20498;-40
2022/11/11 00:44:55;;;;;;;9.98;5.50;;;;;;;;;;5092975;28;20031;-40
2022/11/11 00:52:52;;;;;;;8.70;4.55;;;;;;;;;;5072239;28;20067;-40
2022/11/11 00:55:18;;;;;;;6.80;4.38;;;;;;;;;;5072316;28;20052;-40
2022/11/11 06:02:15;;;;;;;6.25;4.53;;;;;;;;;;5072051;28;20553;-40
2022/11/11 06:04:41;;;;;;;7.57;4.57;;;;;;;;;;5072643;28;20078;-40
2022/11/11 06:07:07;;;;;;;8.18;5.10;;;;;;;;;;5072703;28;20415;-40
2022/11/11 06:09:33;;;;;;;6.53;4.22;;;;;;;;;;5072722;28;20109;-40
2022/11/11 06:12:00;;;;;;;7.93;4.70;;;;;;;;;;5072594;28;20035;-40
2022/11/11 06:14:26;;;;;;;7.68;4.97;;;;;;;;;;5072738;28;20025;-40
2022/11/11 06:16:52;;;;;;;8.73;4.88;;;;;;;;;;5072619;28;20039;-40
2022/11/11 06:19:18;;;;;;;8.18;4.90;;;;;;;;;;5072358;28;20470;-40
2022/11/11 06:21:56;;;;;;;8.98;5.20;;;;;;;;;;5072460;28;20024;-40
2022/11/11 06:24:22;;;;;;;8.90;5.35;;;;;;;;;;5072465;28;20021;-40
2022/11/11 06:26:48;;;;;;;9.45;5.30;;;;;;;;;;5072549;28;20450;-40
2022/11/11 06:29:14;;;;;;;7.75;5.05;;;;;;;;;;5072039;28;20082;-40
2022/11/11 06:31:40;;;;;;;8.77;5.30;;;;;;;;;;5054550;28;20027;-40
2022/11/11 06:34:06;;;;;;;8.73;4.80;;;;;;;;;;5072373;28;20028;-40
2022/11/11 06:36:32;;;;;;;9.30;5.10;;;;;;;;;;5072079;28;20062;-40
2022/11/11 06:38:59;;;;;;;8.23;4.97;;;;;;;;;;5072199;28;20024;-40
2022/11/11 06:41:25;;;;;;;7.85;4.55;;;;;;;;;;5072315;28;20667;-40
2022/11/11 06:43:51;;;;;;;7.75;4.85;;;;;;;;;;5071340;28;20029;-40
2022/11/11 06:46:20;;;;;;;9.50;5.97;;;;;;;;;;5071962;28;20115;-40
2022/11/11 06:48:46;;;;;;;9.13;5.22;;;;;;;;;;5072008;28;20024;-40
2022/11/11 06:51:13;;;;;;;8.75;5.47;;;;;;;;;;5071861;28;20024;-40
2022/11/11 06:53:39;;;;;;;8.43;5.85;;;;;;;;;;5071786;28;20027;-40
2022/11/11 06:56:06;;;;;;;6.28;4.47;;;;;;;;;;5071724;28;20028;-40
2022/11/11 06:58:32;;;;;;;6.70;5.07;;;;;;;;;;5071593;28;20016;-40
2022/11/11 07:00:58;;;;;;;7.80;5.05;;;;;;;;;;5092045;28;20059;-40
2022/11/11 07:03:24;;;;;;;8.18;5.38;;;;;;;;;;5091941;28;20032;-40
2022/11/11 07:05:50;;;;;;;7.20;5.03;;;;;;;;;;5091801;28;20084;-40
2022/11/11 07:08:18;;;;;;;6.93;5.00;;;;;;;;;;5091139;28;20028;-40
2022/11/11 07:10:46;;;;;;;7.45;5.30;;;;;;;;;;5071291;28;20036;-40
2022/11/11 07:13:12;;;;;;;6.32;4.45;;;;;;;;;;5071411;28;20492;-40
2022/11/11 07:15:38;;;;;;;6.68;4.63;;;;;;;;;;5071522;28;20491;-40
2022/11/11 07:18:04;;;;;;;7.32;4.15;;;;;;;;;;5073515;28;20021;-40
2022/11/11 07:20:31;;;;;;;6.28;4.35;;;;;;;;;;5091891;28;20028;-40
2022/11/11 07:22:57;;;;;;;6.07;4.38;;;;;;;;;;5089285;28;20028;-40
2022/11/11 07:25:23;;;;;;;7.10;4.63;;;;;;;;;;5083036;28;20089;-40
2022/11/11 07:27:49;;;;;;;4.95;3.75;;;;;;;;;;5071346;28;20031;-40
2022/11/11 07:30:15;;;;;;;5.93;3.80;;;;;;;;;;5071347;28;20024;-40
2022/11/11 07:32:48;;;;;;;5.57;3.40;;;;;;;;;;5071011;28;20043;-40
2022/11/11 07:35:14;;;;;;;4.63;3.35;;;;;;;;;;5053468;28;20108;-40
2022/11/11 07:37:41;;;;;;;5.20;3.65;;;;;;;;;;5071371;28;20087;-40
2022/11/11 07:40:07;;;;;;;4.93;3.47;;;;;;;;;;5070894;28;20020;-40
2022/11/11 07:42:37;;;;;;;4.50;3.13;;;;;;;;;;5076017;28;20020;-40
2022/11/11 07:45:04;;;;;;;4.35;3.00;;;;;;;;;;5091412;28;20379;-40
2022/11/11 07:47:29;;;;;;;4.63;3.25;;;;;;;;;;5087049;28;20107;-40
2022/11/11 07:49:55;;;;;;;3.95;2.97;;;;;;;;;;5091401;28;20108;-40
2022/11/11 07:52:22;;;;;;;3.58;2.75;;;;;;;;;;5096780;28;20476;-40
2022/11/11 07:54:48;;;;;;;3.67;2.95;;;;;;;;;;5096270;28;20476;-40
2022/11/11 07:57:14;;;;;;;3.70;2.80;;;;;;;;;;5090752;28;20117;-40
2022/11/11 07:59:40;;;;;;;3.90;2.50;;;;;;;;;;5082622;28;20571;-40
2022/11/11 08:02:09;;;;;;;2.95;2.35;;;;;;;;;;5079533;28;20112;-40
2022/11/11 08:04:35;;;;;;;3.10;2.63;;;;;;;;;;5075469;28;20406;-40
2022/11/11 08:07:01;;;;;;;3.25;2.63;;;;;;;;;;5088777;28;20043;-40
2022/11/11 08:09:27;;;;;;;3.15;2.45;;;;;;;;;;5095275;28;20024;-40
2022/11/11 08:14:38;;;;;;;;;;;;;;;;;;5092576;28;20110;-40
2022/11/11 08:17:04;;;;;;;3.97;2.72;;;;;;;;;;5094670;28;19991;-40
2022/11/11 08:19:30;;;;;;;2.80;2.33;;;;;;;;;;5093550;28;20020;-40
2022/11/11 08:21:56;;;;;;;4.43;2.65;;;;;;;;;;5078344;28;20411;-40
2022/11/11 08:24:22;;;;;;;2.47;2.15;;;;;;;;;;5087537;28;20056;-40
2022/11/11 08:26:48;;;;;;;3.42;2.35;;;;;;;;;;5095069;28;20028;-40
2022/11/11 08:29:14;;;;;;;3.00;2.47;;;;;;;;;;5082090;28;20020;-40
2022/11/11 08:31:40;;;;;;;2.65;2.30;;;;;;;;;;5092683;28;20074;-40
2022/11/11 08:34:06;;;;;;;2.50;1.98;;;;;;;;;;5090964;28;20127;-40
2022/11/11 08:36:32;;;;;;;2.47;2.20;;;;;;;;;;5093569;28;20107;-40
2022/11/11 08:38:58;;;;;;;2.20;1.92;;;;;;;;;;5094301;28;20036;-40
2022/11/11 08:41:24;;;;;;;3.33;2.67;;;;;;;;;;5085065;28;20044;-40
2022/11/11 08:43:52;;;;;;;3.20;2.40;;;;;;;;;;5090363;28;20020;-40
2022/11/11 08:46:18;;;;;;;2.78;2.22;;;;;;;;;;5093077;28;20063;-40
2022/11/11 08:48:44;;;;;;;2.50;2.10;;;;;;;;;;5085414;28;20466;-40
2022/11/11 08:51:11;;;;;;;2.35;1.83;;;;;;;;;;5086424;28;20069;-40
2022/11/11 08:53:37;;;;;;;2.72;1.98;;;;;;;;;;5088476;28;20024;-40
2022/11/11 08:56:03;;;;;;;2.60;1.80;;;;;;;;;;5085479;28;20080;-40
2022/11/11 08:58:31;;;;;;;2.00;1.77;;;;;;;;;;5088955;28;20072;-40
2022/11/11 09:00:57;;;;;;;1.63;1.52;;;;;;;;;;5085665;28;20025;-40
2022/11/11 09:03:23;;;;;;;2.25;1.85;;;;;;;;;;5088617;28;20093;-40
2022/11/11 09:05:49;;;;;;;2.67;2.10;;;;;;;;;;5088381;28;20107;-40
2022/11/11 09:08:15;;;;;;;2.28;1.85;;;;;;;;;;5083269;28;20052;-40
2022/11/11 09:10:42;;;;;;;3.03;2.35;;;;;;;;;;5086238;28;20491;-40
2022/11/11 09:13:08;;;;;;;3.10;2.47;;;;;;;;;;5084964;28;20534;-40
2022/11/11 09:15:34;;;;;;;2.20;2.00;;;;;;;;;;5089798;28;20577;-40
2022/11/11 09:18:00;;;;;;;3.00;2.45;;;;;;;;;;5089440;28;20588;-40
2022/11/11 09:20:26;;;;;;;2.60;2.13;;;;;;;;;;5087749;28;20032;-40
2022/11/11 09:22:52;;;;;;;3.25;2.40;;;;;;;;;;5092217;28;20024;-40
2022/11/11 09:25:19;;;;;;;3.35;2.70;;;;;;;;;;5089867;28;20024;-40
2022/11/11 09:27:53;;;;;;;2.85;2.30;;;;;;;;;;5090288;28;20020;-40
2022/11/11 09:30:20;;;;;;;2.97;2.20;;;;;;;;;;5084403;28;20024;-40
2022/11/11 09:32:46;;;;;;;2.55;2.13;;;;;;;;;;5082185;28;20035;-40
2022/11/11 09:35:12;;;;;;;2.65;2.00;;;;;;;;;;5088739;28;20107;-40
2022/11/11 09:37:38;;;;;;;2.13;1.77;;;;;;;;;;5086126;28;20038;-40
2022/11/11 09:40:04;;;;;;;2.53;2.08;;;;;;;;;;5090488;28;20491;-40
2022/11/11 09:42:47;;;;;;;1.70;1.60;;;;;;;;;;5089936;28;20099;-40
2022/11/11 09:45:46;;;;;;;1.92;1.73;;;;;;;;;;5082067;28;20711;-40
2022/11/11 09:48:30;;;;;;;2.20;1.98;;;;;;;;;;5052837;28;20169;-40
2022/11/11 09:50:57;;;;;;;2.72;2.25;;;;;;;;;;5069838;28;20035;-40
2022/11/11 09:53:36;;;;;;;2.88;1.92;;;;;;;;;;5070013;28;20028;-40
2022/11/11 09:56:13;;;;;;;3.50;2.50;;;;;;;;;;5073730;28;20029;-40
2022/11/11 09:58:50;;;;;;;2.83;1.85;;;;;;;;;;5077799;28;20077;-40
2022/11/11 10:01:24;;;;;;;1.98;1.75;;;;;;;;;;5090442;28;20059;-40
2022/11/11 10:04:00;;;;;;;1.60;1.48;;;;;;;;;;5088358;28;20032;-40
2022/11/11 10:06:33;;;;;;;2.53;1.95;;;;;;;;;;5071018;28;20040;-40
2022/11/11 10:09:20;;;;;;;2.20;1.90;;;;;;;;;;5072563;28;20024;-40
2022/11/11 10:11:54;;;;;;;2.90;2.20;;;;;;;;;;5069863;28;20040;-41
2022/11/11 10:14:20;;;;;;;;;;;;;;;;;;5070689;28;20070;-40
2022/11/11 10:16:58;;;;;;;2.55;1.95;;;;;;;;;;5070907;28;19912;-40
2022/11/11 10:19:30;;;;;;;1.55;1.45;;;;;;;;;;5070706;28;20059;-40
2022/11/11 10:22:00;;;;;;;1.75;1.55;;;;;;;;;;5087066;28;20028;-40
2022/11/11 10:24:29;;;;;;;1.67;1.30;;;;;;;;;;5088429;28;20028;-40
2022/11/11 10:26:55;;;;;;;1.52;1.30;;;;;;;;;;5086990;28;20526;-40
2022/11/11 10:29:22;;;;;;;1.52;1.38;;;;;;;;;;5091019;28;20031;-40
2022/11/11 10:31:57;;;;;;;1.38;1.27;;;;;;;;;;5089589;28;20054;-40
2022/11/11 10:34:26;;;;;;;1.05;0.95;;;;;;;;;;5089547;28;20055;-40
2022/11/11 10:36:56;;;;;;;0.80;0.80;;;;;;;;;;5086896;28;20099;-40
2022/11/11 10:39:42;;;;;;;1.38;1.17;;;;;;;;;;5072171;28;20035;-40
2022/11/11 10:42:15;;;;;;;1.42;1.15;;;;;;;;;;5039718;28;20044;-40
2022/11/11 10:44:41;;;;;;;1.33;1.23;;;;;;;;;;5090659;28;20035;-40
2022/11/11 10:47:15;;;;;;;1.38;1.02;;;;;;;;;;5088024;28;20060;-40
2022/11/11 10:49:52;;;;;;;1.10;1.00;;;;;;;;;;5088764;28;20032;-40
2022/11/11 10:52:33;;;;;;;1.13;1.02;;;;;;;;;;5089119;28;20376;-40
2022/11/11 10:54:59;;;;;;;2.03;1.33;;;;;;;;;;5088158;28;20051;-40
2022/11/11 10:57:48;;;;;;;1.23;1.10;;;;;;;;;;5086297;28;20070;-40
2022/11/11 11:00:15;;;;;;;1.92;1.10;;;;;;;;;;5077279;28;20047;-40
2022/11/11 11:02:49;;;;;;;1.10;1.00;;;;;;;;;;5088644;28;20051;-40
2022/11/11 11:05:20;;;;;;;2.97;1.23;;;;;;;;;;5088378;28;20660;-40
2022/11/11 11:07:50;;;;;;;1.80;1.23;;;;;;;;;;5087704;28;20503;-40
2022/11/11 11:10:18;;;;;;;1.15;0.98;;;;;;;;;;5084442;28;20373;-41
2022/11/11 11:13:05;;;;;;;1.25;1.15;;;;;;;;;;5080920;28;20384;-40
2022/11/11 11:15:32;;;;;;;1.20;1.10;;;;;;;;;;5084573;28;20030;-40
2022/11/11 11:18:11;;;;;;;0.88;0.88;;;;;;;;;;5087732;28;20106;-41
2022/11/11 11:20:37;;;;;;;1.02;0.93;;;;;;;;;;5087396;28;20498;-40
2022/11/11 11:23:03;;;;;;;1.10;1.00;;;;;;;;;;5088687;28;20428;-40
2022/11/11 11:25:32;;;;;;;0.70;0.70;;;;;;;;;;5082708;28;20038;-40
2022/11/11 11:28:06;;;;;;;0.82;0.70;;;;;;;;;;5085649;28;20020;-40
2022/11/11 11:30:32;;;;;;;0.70;0.70;;;;;;;;;;5085209;28;20024;-41
2022/11/11 11:33:02;;;;;;;0.63;0.63;;;;;;;;;;5084327;28;20498;-40
2022/11/11 11:35:33;;;;;;;0.80;0.80;;;;;;;;;;5087238;28;20016;-41
2022/11/11 11:37:59;;;;;;;0.55;0.55;;;;;;;;;;5082012;28;20025;-41
2022/11/11 11:40:25;;;;;;;0.60;0.60;;;;;;;;;;5083524;28;20052;-40
2022/11/11 11:42:51;;;;;;;0.50;0.50;;;;;;;;;;5085874;28;20491;-40
2022/11/11 11:45:20;;;;;;;0.60;0.60;;;;;;;;;;5087074;28;20466;-40
2022/11/11 11:48:07;;;;;;;0.82;0.60;;;;;;;;;;5084519;28;20032;-41
2022/11/11 11:50:49;;;;;;;0.70;0.50;;;;;;;;;;5072140;28;20035;-40
2022/11/11 11:53:25;;;;;;;0.50;0.50;;;;;;;;;;5083873;28;20142;-40
2022/11/11 11:55:55;;;;;;;0.60;0.60;;;;;;;;;;5082245;28;20111;-41
2022/11/11 11:58:31;;;;;;;0.50;0.50;;;;;;;;;;5083020;28;20036;-40
2022/11/11 12:01:04;;;;;;;0.57;0.55;;;;;;;;;;5080237;28;20041;-40
2022/11/11 12:03:30;;;;;;;0.40;0.40;;;;;;;;;;5067515;28;20103;-40
2022/11/11 12:06:03;;;;;;;0.68;0.57;;;;;;;;;;5078431;28;20047;-41
2022/11/11 12:08:42;;;;;;;0.47;0.47;;;;;;;;;;5085116;28;20024;-41
2022/11/11 12:11:17;;;;;;;0.30;0.30;;;;;;;;;;5080230;28;20040;-40
2022/11/11 12:13:43;;;;;;;0.40;0.40;;;;;;;;;;5073423;28;20034;-40
2022/11/11 12:16:18;;;;;;;0.40;0.38;;;;;;;;;;5068817;28;20131;-40
2022/11/11 12:18:44;;;;;;;0.50;0.50;;;;;;;;;;5086521;28;20035;-41
2022/11/11 12:21:15;;;;;;;0.32;0.32;;;;;;;;;;5075590;28;20036;-41
2022/11/11 12:23:58;;;;;;;0.30;0.30;;;;;;;;;;5074502;28;20032;-40
2022/11/11 12:26:40;;;;;;;0.50;0.50;;;;;;;;;;5083602;28;20090;-40
2022/11/11 12:29:15;;;;;;;0.40;0.40;;;;;;;;;;5085154;28;20032;-41
2022/11/11 12:31:52;;;;;;;0.40;0.40;;;;;;;;;;5086128;28;20021;-40
2022/11/11 12:34:21;;;;;;;0.40;0.40;;;;;;;;;;5081805;28;20021;-41
2022/11/11 12:36:54;;;;;;;0.40;0.40;;;;;;;;;;5085188;28;20035;-41
2022/11/11 12:39:35;;;;;;;0.40;0.40;;;;;;;;;;5084328;28;20047;-41
2022/11/11 12:42:01;;;;;;;0.40;0.40;;;;;;;;;;5089098;28;20028;-41
2022/11/11 12:44:34;;;;;;;0.50;0.50;;;;;;;;;;5088035;28;20038;-40
2022/11/11 12:47:06;;;;;;;0.40;0.40;;;;;;;;;;5088135;28;20032;-40
2022/11/11 12:49:51;;;;;;;0.40;0.40;;;;;;;;;;5083469;28;20047;-41
2022/11/11 12:52:17;;;;;;;;;;;;;;;;;;5054249;28;20600;-41
2022/11/11 12:54:48;;;;;;;0.70;0.70;;;;;;;;;;5069135;28;19904;-41
2022/11/11 12:57:25;;;;;;;0.93;0.70;;;;;;;;;;5080146;28;20524;-41
2022/11/11 13:00:16;;;;;;;0.50;0.50;;;;;;;;;;5090652;28;20502;-40
2022/11/11 13:02:45;;;;;;;0.40;0.40;;;;;;;;;;5089942;28;20036;-41
2022/11/11 13:05:23;;;;;;;0.63;0.60;;;;;;;;;;5090720;28;20074;-41
2022/11/11 13:08:13;;;;;;;0.40;0.40;;;;;;;;;;5090766;28;20035;-41
2022/11/11 13:11:11;;;;;;;0.40;0.40;;;;;;;;;;5043934;28;20124;-41
2022/11/11 13:13:40;;;;;;;0.95;0.57;;;;;;;;;;5027781;28;20047;-40
2022/11/11 13:16:09;;;;;;;0.40;0.40;;;;;;;;;;5086549;28;20042;-40
2022/11/11 13:18:38;;;;;;;0.50;0.50;;;;;;;;;;5090310;28;20082;-41
2022/11/11 13:21:09;;;;;;;0.40;0.40;;;;;;;;;;5090175;28;20085;-41
2022/11/11 13:23:35;;;;;;;0.40;0.40;;;;;;;;;;5074315;28;20090;-41
2022/11/11 13:26:06;;;;;;;0.47;0.47;;;;;;;;;;5070630;28;20464;-41
2022/11/11 13:28:32;;;;;;;0.40;0.40;;;;;;;;;;5071021;28;20024;-40
2022/11/11 13:31:01;;;;;;;0.47;0.47;;;;;;;;;;5090345;28;20490;-41
2022/11/11 13:33:35;;;;;;;0.77;0.60;;;;;;;;;;5090178;28;20025;-41
2022/11/11 13:36:01;;;;;;;;;;;;;;;;;;5090243;28;20059;-41
2022/11/11 13:38:32;;;;;;;0.40;0.40;;;;;;;;;;5089711;28;19966;-41
2022/11/11 13:41:00;;;;;;;0.32;0.32;;;;;;;;;;5070186;28;20028;-41
2022/11/11 13:43:26;;;;;;;0.80;0.70;;;;;;;;;;5069825;28;20033;-41
2022/11/11 13:45:57;;;;;;;0.90;0.90;;;;;;;;;;5069593;28;20025;-40
2022/11/11 13:48:35;;;;;;;0.93;0.90;;;;;;;;;;5089370;28;20107;-41
2022/11/11 13:51:13;;;;;;;1.02;0.90;;;;;;;;;;5090077;28;20024;-41
2022/11/11 13:53:40;;;;;;;2.17;1.10;;;;;;;;;;5089720;28;20502;-41
2022/11/11 13:56:07;;;;;;;1.13;1.02;;;;;;;;;;5088036;28;20032;-41
2022/11/11 13:58:38;;;;;;;0.82;0.82;;;;;;;;;;5090173;28;20047;-40
2022/11/11 14:01:05;;;;;;;1.15;1.02;;;;;;;;;;5086239;28;20117;-40
2022/11/11 14:03:36;;;;;;;1.08;0.93;;;;;;;;;;5069196;28;20090;-40
2022/11/11 14:06:14;;;;;;;1.17;0.80;;;;;;;;;;5071509;28;20037;-41
2022/11/11 14:08:46;;;;;;;0.80;0.70;;;;;;;;;;5089430;28;20024;-40
2022/11/11 14:11:24;;;;;;;0.60;0.60;;;;;;;;;;5090177;28;20483;-41
2022/11/11 14:13:51;;;;;;;1.13;1.02;;;;;;;;;;5074086;28;20565;-41
2022/11/11 14:16:35;;;;;;;1.10;0.93;;;;;;;;;;5068411;28;20038;-40
2022/11/11 14:19:27;;;;;;;0.88;0.88;;;;;;;;;;5073249;28;20054;-40
2022/11/11 14:21:54;;;;;;;0.82;0.82;;;;;;;;;;5081135;28;20483;-40
2022/11/11 14:24:39;;;;;;;0.70;0.70;;;;;;;;;;5070964;28;20033;-41
2022/11/11 14:27:08;;;;;;;1.08;0.98;;;;;;;;;;5082660;28;20031;-41
2022/11/11 14:29:38;;;;;;;1.83;1.02;;;;;;;;;;5069492;28;20647;-40
2022/11/11 14:32:25;;;;;;;0.93;0.88;;;;;;;;;;5080008;28;20446;-40
2022/11/11 14:34:58;;;;;;;0.77;0.77;;;;;;;;;;5088879;28;20034;-41
2022/11/11 14:37:26;;;;;;;0.85;0.80;;;;;;;;;;5069032;28;20078;-40
2022/11/11 14:39:56;;;;;;;0.70;0.70;;;;;;;;;;5068683;28;20570;-41
2022/11/11 14:42:31;;;;;;;0.65;0.65;;;;;;;;;;5068724;28;20031;-41
2022/11/11 14:44:57;;;;;;;0.95;0.85;;;;;;;;;;5080718;28;20051;-41
2022/11/11 14:47:24;;;;;;;1.52;1.05;;;;;;;;;;5088465;28;20028;-41
2022/11/11 14:49:54;;;;;;;0.68;0.68;;;;;;;;;;5088460;28;20028;-41
2022/11/11 14:52:23;;;;;;;0.70;0.70;;;;;;;;;;5088678;28;20023;-41
2022/11/11 14:54:54;;;;;;;0.85;0.75;;;;;;;;;;5070795;28;20100;-41
2022/11/11 14:57:31;;;;;;;0.75;0.73;;;;;;;;;;5068256;28;20036;-41
2022/11/11 14:59:57;;;;;;;0.90;0.80;;;;;;;;;;5075179;28;20016;-41
2022/11/11 15:02:26;;;;;;;0.73;0.73;;;;;;;;;;5087858;28;20493;-41
2022/11/11 15:04:53;;;;;;;0.82;0.82;;;;;;;;;;5074431;28;20040;-40
2022/11/11 15:07:24;;;;;;;1.23;0.90;;;;;;;;;;5068113;28;20090;-41
2022/11/11 15:09:50;;;;;;;0.80;0.80;;;;;;;;;;5068067;28;20033;-41
2022/11/11 15:12:16;;;;;;;0.98;0.80;;;;;;;;;;5068767;28;20052;-41
2022/11/11 15:14:52;;;;;;;0.60;0.60;;;;;;;;;;5077916;28;20099;-41
2022/11/11 15:17:28;;;;;;;0.55;0.55;;;;;;;;;;5076076;28;20036;-40
2022/11/11 15:19:57;;;;;;;0.82;0.80;;;;;;;;;;5087302;28;20028;-40
2022/11/11 15:22:47;;;;;;;1.05;0.70;;;;;;;;;;5083495;28;20028;-41
2022/11/11 15:25:30;;;;;;;0.82;0.80;;;;;;;;;;5067230;28;20035;-41
2022/11/11 15:27:59;;;;;;;0.73;0.73;;;;;;;;;;5069092;28;20032;-41
2022/11/11 15:30:37;;;;;;;0.65;0.65;;;;;;;;;;5079063;28;20088;-40
2022/11/11 15:33:13;;;;;;;0.77;0.77;;;;;;;;;;5087414;28;20016;-40
2022/11/11 15:36:01;;;;;;;1.05;0.90;;;;;;;;;;5087921;28;20169;-41
2022/11/11 15:38:28;;;;;;;0.80;0.80;;;;;;;;;;5081202;28;20108;-40
2022/11/11 15:41:00;;;;;;;0.90;0.90;;;;;;;;;;5087029;28;20036;-40
2022/11/11 15:43:31;;;;;;;1.15;0.73;;;;;;;;;;5082133;28;20071;-40
2022/11/11 15:46:01;;;;;;;1.23;1.00;;;;;;;;;;5098029;28;20028;-40
2022/11/11 15:48:29;;;;;;;1.13;0.93;;;;;;;;;;5092682;28;20031;-40
2022/11/11 15:50:55;;;;;;;0.98;0.88;;;;;;;;;;5106067;28;20555;-40
2022/11/11 15:53:25;;;;;;;1.10;1.00;;;;;;;;;;5100706;28;20039;-40
2022/11/11 15:55:56;;;;;;;1.10;1.00;;;;;;;;;;5076972;28;20278;-40
2022/11/11 15:58:25;;;;;;;1.50;1.17;;;;;;;;;;5087272;28;20020;-40
2022/11/11 16:00:51;;;;;;;1.20;1.10;;;;;;;;;;5086028;28;20301;-40
2022/11/11 16:03:24;;;;;;;1.63;1.35;;;;;;;;;;5086561;28;20032;-40
2022/11/11 16:05:50;;;;;;;1.65;1.30;;;;;;;;;;5086588;28;20048;-40
2022/11/11 16:08:19;;;;;;;1.08;0.90;;;;;;;;;;5086992;28;20443;-40
2022/11/11 16:10:46;;;;;;;1.20;1.10;;;;;;;;;;5086892;28;20039;-40
2022/11/11 16:13:15;;;;;;;1.10;1.00;;;;;;;;;;5089400;28;20059;-40
2022/11/11 16:16:10;;;;;;;1.33;0.93;;;;;;;;;;5090538;28;20027;-40
2022/11/11 16:18:43;;;;;;;1.00;0.90;;;;;;;;;;5068897;28;20051;-40
2022/11/11 16:21:29;;;;;;;1.85;1.20;;;;;;;;;;5088535;28;20050;-40
2022/11/11 16:23:56;;;;;;;1.27;1.17;;;;;;;;;;5074944;28;20087;-40
2022/11/11 16:26:22;;;;;;;0.95;0.90;;;;;;;;;;5079874;28;20490;-40
2022/11/11 16:28:56;;;;;;;1.98;1.13;;;;;;;;;;5088838;28;20499;-41
2022/11/11 16:31:22;;;;;;;;;;;;;;;;;;5088961;28;20111;-40
2022/11/11 16:33:48;;;;;;;1.35;1.20;;;;;;;;;;5088870;28;19987;-40
2022/11/11 16:36:14;;;;;;;0.90;0.90;;;;;;;;;;5087573;28;20025;-40
2022/11/11 16:38:42;;;;;;;1.13;1.02;;;;;;;;;;5071121;28;20021;-40
2022/11/11 16:41:23;;;;;;;1.45;1.33;;;;;;;;;;5068670;28;20029;-40
2022/11/11 16:43:51;;;;;;;1.92;1.45;;;;;;;;;;5075831;28;20782;-41
2022/11/11 16:46:36;;;;;;;0.90;0.90;;;;;;;;;;5071815;28;20024;-40
2022/11/11 16:49:21;;;;;;;1.52;1.13;;;;;;;;;;5071702;28;20628;-40
2022/11/11 16:51:47;;;;;;;1.00;0.90;;;;;;;;;;5071793;28;20033;-41
2022/11/11 16:54:15;;;;;;;1.13;1.02;;;;;;;;;;5049143;28;20060;-41
2022/11/11 16:56:46;;;;;;;1.40;1.10;;;;;;;;;;5074043;28;20036;-41
2022/11/11 16:59:15;;;;;;;1.48;1.30;;;;;;;;;;5080061;28;20039;-41
2022/11/11 17:01:45;;;;;;;1.65;1.40;;;;;;;;;;5107324;28;20322;-41
2022/11/11 17:04:12;;;;;;;2.83;1.92;;;;;;;;;;5067031;28;20466;-40
2022/11/11 17:06:49;;;;;;;2.97;2.30;;;;;;;;;;5086125;28;20016;-41
2022/11/11 17:09:34;;;;;;;2.67;2.10;;;;;;;;;;5085194;28;20055;-40
2022/11/11 17:12:00;;;;;;;4.10;2.88;;;;;;;;;;5061633;28;20492;-41
2022/11/11 17:14:28;;;;;;;4.03;2.65;;;;;;;;;;5087492;28;20024;-40
2022/11/11 17:16:54;;;;;;;5.38;3.08;;;;;;;;;;5086200;28;20027;-40
2022/11/11 17:19:23;;;;;;;3.58;2.67;;;;;;;;;;5086758;28;20466;-40
2022/11/11 17:21:49;;;;;;;3.97;3.05;;;;;;;;;;5066379;28;20151;-41
2022/11/11 17:24:15;;;;;;;3.17;2.38;;;;;;;;;;5081381;28;20624;-40
2022/11/11 17:26:42;;;;;;;2.63;2.30;;;;;;;;;;5049128;28;20075;-41
2022/11/11 17:29:09;;;;;;;2.83;2.00;;;;;;;;;;5066213;28;20028;-41
2022/11/11 17:31:37;;;;;;;2.95;2.47;;;;;;;;;;5077588;28;20024;-41
2022/11/11 17:34:09;;;;;;;4.28;2.40;;;;;;;;;;5087392;28;20738;-40
2022/11/11 17:36:35;;;;;;;5.03;2.47;;;;;;;;;;5070819;28;20225;-40
2022/11/11 17:39:01;;;;;;;3.45;2.17;;;;;;;;;;5050078;28;20032;-40
2022/11/11 17:41:27;;;;;;;4.13;2.70;;;;;;;;;;5079628;28;20028;-41
2022/11/11 17:43:54;;;;;;;3.85;2.38;;;;;;;;;;5065597;28;20029;-41
2022/11/11 17:46:20;;;;;;;5.47;2.70;;;;;;;;;;5079956;28;20111;-41
2022/11/11 17:48:47;;;;;;;4.35;2.63;;;;;;;;;;5082733;28;20095;-41
2022/11/11 17:51:14;;;;;;;4.93;3.00;;;;;;;;;;5073490;28;20044;-41
2022/11/11 17:53:40;;;;;;;5.15;2.60;;;;;;;;;;5075761;28;20747;-41
2022/11/11 17:56:06;;;;;;;5.50;2.88;;;;;;;;;;5078176;28;20028;-41
2022/11/11 17:58:35;;;;;;;3.97;2.13;;;;;;;;;;5081931;28;20031;-41
2022/11/11 18:01:05;;;;;;;3.95;2.38;;;;;;;;;;5077917;28;20056;-40
2022/11/11 18:03:31;;;;;;;3.72;2.03;;;;;;;;;;5080292;28;20696;-41
2022/11/11 18:05:57;;;;;;;3.00;2.15;;;;;;;;;;5075063;28;20166;-41
2022/11/11 18:08:24;;;;;;;3.67;2.17;;;;;;;;;;5075844;28;20047;-41
2022/11/11 18:10:51;;;;;;;2.97;1.83;;;;;;;;;;5073810;28;20121;-41
2022/11/11 18:13:17;;;;;;;2.65;1.85;;;;;;;;;;5083834;28;20027;-41
2022/11/11 18:15:43;;;;;;;2.22;1.85;;;;;;;;;;5070064;28;20046;-41
2022/11/11 18:18:09;;;;;;;3.13;2.13;;;;;;;;;;5069517;28;20512;-41
2022/11/11 18:20:35;;;;;;;2.60;1.88;;;;;;;;;;5076937;28;20051;-41
2022/11/11 18:23:02;;;;;;;2.30;1.83;;;;;;;;;;5061994;28;20107;-41
2022/11/11 18:25:29;;;;;;;2.85;2.15;;;;;;;;;;5073316;28;20081;-41
2022/11/11 18:27:56;;;;;;;2.75;1.92;;;;;;;;;;5078834;28;20060;-41
2022/11/11 18:30:22;;;;;;;3.38;2.30;;;;;;;;;;5052907;28;20475;-40
2022/11/11 18:32:49;;;;;;;4.25;2.70;;;;;;;;;;5066775;28;20299;-40
2022/11/11 18:35:17;;;;;;;3.60;2.63;;;;;;;;;;5068532;28;20082;-40
2022/11/11 18:37:43;;;;;;;5.05;2.92;;;;;;;;;;5072263;28;20028;-41
2022/11/11 18:40:10;;;;;;;4.65;2.80;;;;;;;;;;5075614;28;20094;-41
2022/11/11 18:42:37;;;;;;;5.30;3.30;;;;;;;;;;5064463;28;20236;-40
2022/11/11 18:45:03;;;;;;;5.95;3.50;;;;;;;;;;5079227;28;20089;-40
2022/11/11 18:47:29;;;;;;;4.38;2.85;;;;;;;;;;5079174;28;20514;-40
2022/11/11 18:49:55;;;;;;;4.55;2.83;;;;;;;;;;5079589;28;20047;-40
2022/11/11 18:52:21;;;;;;;5.95;3.28;;;;;;;;;;5062125;28;20587;-41
2022/11/11 18:54:47;;;;;;;4.18;2.70;;;;;;;;;;5081399;28;20028;-41
2022/11/11 18:57:13;;;;;;;4.35;3.00;;;;;;;;;;5066350;28;20454;-41
2022/11/11 18:59:40;;;;;;;4.15;3.15;;;;;;;;;;5056295;28;20277;-41
2022/11/11 19:02:10;;;;;;;4.40;3.15;;;;;;;;;;5075985;28;20032;-40
2022/11/11 19:04:36;;;;;;;4.93;3.10;;;;;;;;;;5076793;28;20032;-40
2022/11/11 19:07:02;;;;;;;4.95;3.08;;;;;;;;;;5076459;28;20039;-40
2022/11/11 19:09:28;;;;;;;4.13;2.72;;;;;;;;;;5073730;28;20077;-40
2022/11/11 19:11:54;;;;;;;4.78;3.72;;;;;;;;;;5071730;28;20048;-40
2022/11/11 19:14:20;;;;;;;4.28;3.15;;;;;;;;;;5069260;28;20078;-40
2022/11/11 19:16:46;;;;;;;4.20;3.00;;;;;;;;;;5083807;28;20024;-40
2022/11/11 19:19:14;;;;;;;4.43;2.80;;;;;;;;;;5080964;28;20411;-41
2022/11/11 19:21:40;;;;;;;3.17;2.60;;;;;;;;;;5074174;28;20023;-40
2022/11/11 19:24:08;;;;;;;4.47;2.90;;;;;;;;;;5063561;28;20410;-40
2022/11/11 19:26:34;;;;;;;4.20;2.83;;;;;;;;;;5081391;28;20028;-41
2022/11/11 19:29:01;;;;;;;4.25;2.88;;;;;;;;;;5050241;28;20029;-41
2022/11/11 19:31:28;;;;;;;4.60;3.00;;;;;;;;;;5068584;28;20170;-41
2022/11/11 19:33:56;;;;;;;4.13;3.10;;;;;;;;;;5075342;28;20036;-40
2022/11/11 19:36:23;;;;;;;4.78;3.22;;;;;;;;;;5074445;28;20035;-40
2022/11/11 19:38:50;;;;;;;5.43;3.83;;;;;;;;;;5081732;28;20510;-41
2022/11/11 19:41:20;;;;;;;4.47;3.65;;;;;;;;;;5078948;28;20107;-40
2022/11/11 19:43:46;;;;;;;6.43;4.03;;;;;;;;;;5078030;28;20037;-40
2022/11/11 19:46:17;;;;;;;6.15;4.25;;;;;;;;;;5080249;28;20407;-41
2022/11/11 19:48:43;;;;;;;6.80;4.40;;;;;;;;;;5067992;28;20539;-41
2022/11/11 19:51:16;;;;;;;6.13;4.15;;;;;;;;;;5076128;28;20073;-40
2022/11/11 19:53:42;;;;;;;5.45;4.10;;;;;;;;;;5078458;28;20116;-40
2022/11/11 19:56:10;;;;;;;5.45;3.95;;;;;;;;;;5067382;28;20051;-41
2022/11/11 19:58:36;;;;;;;6.20;3.90;;;;;;;;;;5074678;28;20047;-40
2022/11/11 20:01:13;;;;;;;5.82;4.03;;;;;;;;;;5083600;28;20130;-40
2022/11/11 20:03:39;;;;;;;4.38;3.20;;;;;;;;;;5077721;28;20093;-41
2022/11/11 20:06:06;;;;;;;7.35;4.20;;;;;;;;;;5074554;28;20029;-40
2022/11/11 20:08:32;;;;;;;5.15;3.78;;;;;;;;;;5067640;28;20033;-40
2022/11/11 20:11:06;;;;;;;5.88;3.72;;;;;;;;;;5071223;28;20028;-40
2022/11/11 20:13:32;;;;;;;4.03;3.30;;;;;;;;;;5067638;28;20021;-41
2022/11/11 20:16:01;;;;;;;5.28;4.35;;;;;;;;;;5053988;28;20677;-40
2022/11/11 20:18:28;;;;;;;4.88;3.45;;;;;;;;;;5084396;28;20526;-41
2022/11/11 20:21:01;;;;;;;5.53;3.92;;;;;;;;;;5074228;28;20383;-40
2022/11/11 20:23:27;;;;;;;4.28;3.47;;;;;;;;;;5071023;28;20036;-41
2022/11/11 20:25:53;;;;;;;5.95;4.22;;;;;;;;;;5078927;28;20112;-41